createdAt,value
2022-09-30T00:01:56.975Z,69.50
2022-09-30T00:04:26.910Z,69.50
2022-09-30T00:06:56.448Z,69.40
2022-09-30T00:09:25.726Z,69.30
2022-09-30T00:11:55.047Z,69.20
2022-09-30T00:14:26.251Z,69.20
2022-09-30T00:16:55.374Z,69.00
2022-09-30T00:19:24.593Z,69.00
2022-09-30T00:21:53.733Z,68.90
2022-09-30T00:24:22.879Z,69.00
2022-09-30T00:26:52.038Z,68.90
2022-09-30T00:29:21.208Z,68.80
2022-09-30T00:31:52.147Z,68.80
2022-09-30T00:34:21.349Z,68.70
2022-09-30T00:36:52.390Z,68.60
2022-09-30T00:39:23.654Z,68.60
2022-09-30T00:41:55.107Z,68.40
2022-09-30T00:44:51.924Z,68.40
2022-09-30T00:47:46.587Z,68.30
2022-09-30T00:50:24.106Z,68.30
2022-09-30T00:52:56.900Z,68.20
2022-09-30T00:55:32.706Z,68.20
2022-09-30T00:58:04.173Z,68.30
2022-09-30T01:00:33.570Z,68.20
2022-09-30T01:03:05.332Z,68.10
2022-09-30T01:05:36.048Z,68.00
2022-09-30T01:08:07.830Z,68.00
2022-09-30T01:10:37.700Z,67.90
2022-09-30T01:13:07.784Z,67.80
2022-09-30T01:15:49.906Z,67.90
2022-09-30T01:18:27.483Z,67.80
2022-09-30T01:21:25.696Z,67.80
2022-09-30T01:24:19.132Z,67.80
2022-09-30T01:27:14.035Z,67.70
2022-09-30T01:30:04.822Z,67.60
2022-09-30T01:32:50.836Z,67.60
2022-09-30T01:35:31.887Z,67.50
2022-09-30T01:38:13.421Z,67.50
2022-09-30T01:40:48.383Z,67.50
2022-09-30T01:43:30.052Z,67.30
2022-09-30T01:46:02.625Z,67.30
2022-09-30T01:48:43.472Z,67.20
2022-09-30T01:51:21.931Z,67.20
2022-09-30T01:53:57.241Z,67.20
2022-09-30T01:56:34.258Z,67.30
2022-09-30T01:59:07.170Z,67.30
2022-09-30T02:01:43.352Z,67.20
2022-09-30T02:04:20.196Z,67.10
2022-09-30T02:06:53.797Z,67.00
2022-09-30T02:09:28.102Z,67.00
2022-09-30T02:12:00.207Z,67.00
2022-09-30T02:14:34.993Z,66.80
2022-09-30T02:17:08.741Z,66.90
2022-09-30T02:19:41.898Z,66.90
2022-09-30T02:22:16.352Z,66.80
2022-09-30T02:24:47.393Z,66.90
2022-09-30T02:27:21.970Z,66.70
2022-09-30T02:29:57.066Z,66.70
2022-09-30T02:32:36.352Z,66.80
2022-09-30T02:35:10.247Z,66.70
2022-09-30T02:37:42.575Z,66.70
2022-09-30T02:40:18.070Z,66.60
2022-09-30T02:42:47.680Z,66.70
2022-09-30T02:45:21.349Z,66.60
2022-09-30T02:48:10.715Z,66.60
2022-09-30T02:50:47.674Z,66.60
2022-09-30T02:53:25.637Z,66.60
2022-09-30T02:56:12.301Z,66.60
2022-09-30T02:58:43.505Z,66.60
2022-09-30T03:01:15.279Z,66.50
2022-09-30T03:03:49.559Z,66.40
2022-09-30T03:06:20.682Z,66.40
2022-09-30T03:08:50.106Z,66.30
2022-09-30T03:11:21.759Z,66.30
2022-09-30T03:14:32.807Z,66.30
2022-09-30T03:17:24.154Z,66.20
2022-09-30T03:20:15.036Z,66.30
2022-09-30T03:23:13.300Z,66.20
2022-09-30T03:25:51.732Z,66.30
2022-09-30T03:28:28.956Z,66.20
2022-09-30T03:31:06.838Z,66.20
2022-09-30T03:33:46.179Z,66.30
2022-09-30T03:36:21.927Z,66.10
2022-09-30T03:38:59.218Z,66.10
2022-09-30T03:41:35.387Z,66.10
2022-09-30T03:44:11.190Z,66.10
2022-09-30T03:46:44.298Z,66.20
2022-09-30T03:49:17.241Z,66.10
2022-09-30T03:51:46.359Z,65.90
2022-09-30T03:54:17.161Z,65.90
2022-09-30T03:56:46.341Z,66.00
2022-09-30T03:59:24.211Z,65.90
2022-09-30T04:01:53.855Z,65.80
2022-09-30T04:04:23.114Z,65.90
2022-09-30T04:06:52.243Z,65.90
2022-09-30T04:09:23.105Z,65.80
2022-09-30T04:11:52.788Z,65.70
2022-09-30T04:14:22.011Z,65.80
2022-09-30T04:16:53.936Z,65.70
2022-09-30T04:19:23.687Z,65.70
2022-09-30T04:21:54.103Z,65.60
2022-09-30T04:24:25.564Z,65.70
2022-09-30T04:26:54.900Z,65.60
2022-09-30T04:29:24.254Z,65.50
2022-09-30T04:31:53.641Z,65.50
2022-09-30T04:34:22.850Z,65.50
2022-09-30T04:36:52.171Z,65.60
2022-09-30T04:39:21.696Z,65.60
2022-09-30T04:41:54.177Z,65.50
2022-09-30T04:44:23.592Z,65.30
2022-09-30T04:46:52.773Z,65.40
2022-09-30T04:49:22.474Z,65.00
2022-09-30T04:51:51.785Z,64.90
2022-09-30T04:54:21.240Z,64.70
2022-09-30T04:56:51.879Z,64.60
2022-09-30T04:59:21.130Z,64.40
2022-09-30T05:01:50.385Z,64.70
2022-09-30T05:04:19.719Z,64.60
2022-09-30T05:06:49.843Z,64.70
2022-09-30T05:09:19.167Z,64.70
2022-09-30T05:11:48.323Z,64.80
2022-09-30T05:14:18.987Z,64.80
2022-09-30T05:16:48.169Z,64.70
2022-09-30T05:19:17.385Z,64.70
2022-09-30T05:21:46.992Z,64.80
2022-09-30T05:24:16.317Z,64.70
2022-09-30T05:26:45.516Z,64.70
2022-09-30T05:29:15.035Z,64.80
2022-09-30T05:31:45.604Z,64.80
2022-09-30T05:34:16.891Z,64.50
2022-09-30T05:36:46.543Z,64.70
2022-09-30T05:39:15.982Z,64.70
2022-09-30T05:41:45.080Z,64.70
2022-09-30T05:44:14.243Z,64.70
2022-09-30T05:46:46.128Z,64.60
2022-09-30T05:49:15.400Z,64.60
2022-09-30T05:51:44.804Z,64.60
2022-09-30T05:54:14.246Z,64.50
2022-09-30T05:56:43.477Z,64.40
2022-09-30T05:59:12.661Z,64.50
2022-09-30T06:01:41.872Z,64.50
2022-09-30T06:04:12.771Z,64.40
2022-09-30T06:06:41.921Z,64.40
2022-09-30T06:09:11.156Z,64.50
2022-09-30T06:11:43.216Z,64.50
2022-09-30T06:14:12.448Z,64.50
2022-09-30T06:16:41.848Z,64.50
2022-09-30T06:19:12.598Z,64.50
2022-09-30T06:21:41.839Z,64.50
2022-09-30T06:24:13.387Z,64.40
2022-09-30T06:26:43.684Z,64.40
2022-09-30T06:29:13.060Z,64.40
2022-09-30T06:31:42.399Z,64.40
2022-09-30T06:34:13.254Z,64.30
2022-09-30T06:36:42.646Z,64.30
2022-09-30T06:39:13.825Z,64.30
2022-09-30T06:41:44.287Z,64.20
2022-09-30T06:44:21.508Z,64.20
2022-09-30T06:46:53.925Z,64.20
2022-09-30T06:49:25.580Z,64.20
2022-09-30T06:51:56.068Z,64.20
2022-09-30T06:54:27.315Z,64.30
2022-09-30T06:56:57.837Z,64.30
2022-09-30T06:59:27.341Z,64.30
2022-09-30T07:01:56.534Z,64.40
2022-09-30T07:04:27.365Z,64.60
2022-09-30T07:06:56.732Z,65.00
2022-09-30T07:09:26.153Z,65.50
2022-09-30T07:11:55.600Z,65.80
2022-09-30T07:14:24.797Z,66.00
2022-09-30T07:16:54.432Z,66.20
2022-09-30T07:19:23.969Z,66.40
2022-09-30T07:21:54.695Z,66.40
2022-09-30T07:24:23.855Z,66.40
2022-09-30T07:26:53.093Z,66.10
2022-09-30T07:29:22.398Z,66.10
2022-09-30T07:31:51.927Z,65.90
2022-09-30T07:34:21.264Z,65.80
2022-09-30T07:36:50.504Z,65.50
2022-09-30T07:39:21.353Z,65.90
2022-09-30T07:41:50.638Z,65.70
2022-09-30T07:44:20.208Z,65.60
2022-09-30T07:46:49.548Z,65.50
2022-09-30T07:49:24.606Z,65.30
2022-09-30T07:51:56.482Z,65.50
2022-09-30T07:54:29.029Z,65.60
2022-09-30T07:57:10.280Z,65.40
2022-09-30T07:59:42.017Z,65.30
2022-09-30T08:02:16.899Z,65.20
2022-09-30T08:04:46.649Z,65.10
2022-09-30T08:07:17.503Z,65.00
2022-09-30T08:09:48.166Z,65.00
2022-09-30T08:12:17.534Z,65.00
2022-09-30T08:14:46.729Z,65.00
2022-09-30T08:17:16.374Z,64.80
2022-09-30T08:19:45.617Z,64.80
2022-09-30T08:22:16.758Z,64.70
2022-09-30T08:24:47.458Z,64.70
2022-09-30T08:27:16.864Z,64.70
2022-09-30T08:30:04.623Z,64.70
2022-09-30T08:32:34.400Z,64.60
2022-09-30T08:35:03.701Z,64.60
2022-09-30T08:37:33.249Z,64.60
2022-09-30T08:40:04.750Z,64.50
2022-09-30T08:42:50.532Z,64.50
2022-09-30T08:45:31.375Z,64.40
2022-09-30T08:48:08.579Z,64.40
2022-09-30T08:50:50.968Z,64.40
2022-09-30T08:53:27.788Z,64.30
2022-09-30T08:56:02.862Z,64.30
2022-09-30T08:58:34.288Z,64.40
2022-09-30T09:01:12.026Z,64.30
2022-09-30T09:03:41.637Z,64.30
2022-09-30T09:06:21.830Z,64.30
2022-09-30T09:09:02.151Z,64.30
2022-09-30T09:11:47.646Z,64.30
2022-09-30T09:14:27.090Z,64.30
2022-09-30T09:17:11.848Z,64.20
2022-09-30T09:19:49.165Z,64.20
2022-09-30T09:22:22.478Z,64.00
2022-09-30T09:24:55.361Z,63.70
2022-09-30T09:27:32.243Z,63.40
2022-09-30T09:30:08.049Z,63.20
2022-09-30T09:32:37.889Z,63.20
2022-09-30T09:35:16.541Z,63.30
2022-09-30T09:38:14.584Z,63.20
2022-09-30T09:40:57.621Z,63.20
2022-09-30T09:43:43.938Z,63.00
2022-09-30T09:46:19.421Z,62.70
2022-09-30T09:48:48.811Z,62.50
2022-09-30T09:51:27.695Z,62.50
2022-09-30T09:54:01.968Z,62.40
2022-09-30T09:56:33.999Z,62.30
2022-09-30T09:59:10.384Z,62.10
2022-09-30T10:01:42.305Z,62.20
2022-09-30T10:04:19.331Z,62.10
2022-09-30T10:06:51.805Z,62.20
2022-09-30T10:09:25.998Z,62.30
2022-09-30T10:12:20.242Z,62.90
2022-09-30T10:15:01.618Z,62.80
2022-09-30T10:17:33.284Z,62.80
2022-09-30T10:20:07.728Z,62.40
2022-09-30T10:22:38.076Z,63.10
2022-09-30T10:25:21.687Z,62.60
2022-09-30T10:27:54.731Z,62.80
2022-09-30T10:30:44.870Z,63.10
2022-09-30T10:33:20.275Z,63.30
2022-09-30T10:36:05.379Z,63.50
2022-09-30T10:38:35.950Z,63.60
2022-09-30T10:41:06.647Z,63.60
2022-09-30T10:43:46.455Z,63.40
2022-09-30T10:46:27.224Z,63.50
2022-09-30T10:48:59.311Z,63.70
2022-09-30T10:51:36.426Z,63.80
2022-09-30T10:54:07.239Z,63.80
2022-09-30T10:56:40.215Z,63.30
2022-09-30T10:59:23.058Z,63.30
2022-09-30T11:02:00.913Z,63.30
2022-09-30T11:04:36.776Z,63.50
2022-09-30T11:07:16.350Z,63.20
2022-09-30T11:09:54.278Z,63.20
2022-09-30T11:12:31.820Z,63.10
2022-09-30T11:15:09.543Z,62.90
2022-09-30T11:17:48.712Z,62.80
2022-09-30T11:20:23.390Z,62.70
2022-09-30T11:23:00.537Z,62.50
2022-09-30T11:25:41.010Z,62.50
2022-09-30T11:28:37.247Z,62.40
2022-09-30T11:31:16.735Z,62.40
2022-09-30T11:34:03.286Z,62.50
2022-09-30T11:36:42.840Z,61.90
2022-09-30T11:39:40.882Z,62.10
2022-09-30T11:42:15.064Z,62.40
2022-09-30T11:44:46.712Z,62.50
2022-09-30T11:47:33.469Z,62.60
2022-09-30T11:50:32.871Z,62.60
2022-09-30T11:53:13.631Z,62.70
2022-09-30T11:55:59.147Z,62.80
2022-09-30T11:58:41.588Z,62.90
2022-09-30T12:01:23.554Z,62.80
2022-09-30T12:04:01.620Z,63.00
2022-09-30T12:06:36.740Z,62.90
2022-09-30T12:09:15.536Z,62.90
2022-09-30T12:11:51.157Z,63.00
2022-09-30T12:14:26.351Z,63.10
2022-09-30T12:16:58.061Z,63.00
2022-09-30T12:19:32.504Z,63.00
2022-09-30T12:22:12.003Z,62.90
2022-09-30T12:24:42.896Z,62.90
2022-09-30T12:27:20.474Z,62.80
2022-09-30T12:30:15.297Z,62.80
2022-09-30T12:33:18.222Z,62.80
2022-09-30T12:36:29.248Z,62.80
2022-09-30T12:39:28.347Z,62.90
2022-09-30T12:42:12.309Z,62.80
2022-09-30T12:45:05.829Z,62.90
2022-09-30T12:47:45.981Z,62.80
2022-09-30T12:50:18.071Z,62.90
2022-09-30T12:52:48.004Z,62.80
2022-09-30T12:55:28.252Z,62.80
2022-09-30T12:57:58.162Z,62.80
2022-09-30T13:00:30.830Z,62.80
2022-09-30T13:03:06.730Z,62.80
2022-09-30T13:05:54.253Z,62.70
2022-09-30T13:08:39.059Z,62.70
2022-09-30T13:11:38.287Z,62.80
2022-09-30T13:14:26.643Z,62.70
2022-09-30T13:17:36.263Z,62.70
2022-09-30T13:20:55.411Z,62.80
2022-09-30T13:23:38.044Z,62.70
2022-09-30T13:26:35.773Z,62.70
2022-09-30T13:29:39.430Z,62.80
2022-09-30T13:32:10.635Z,63.10
2022-09-30T13:34:59.871Z,63.00
2022-09-30T13:37:41.933Z,63.20
2022-09-30T13:40:50.200Z,63.10
2022-09-30T13:43:23.949Z,63.00
2022-09-30T13:45:55.656Z,63.00
2022-09-30T13:48:30.465Z,63.00
2022-09-30T13:51:01.964Z,62.90
2022-09-30T13:53:35.057Z,62.70
2022-09-30T13:56:09.417Z,62.70
2022-09-30T13:59:13.610Z,62.50
2022-09-30T14:01:54.172Z,62.40
2022-09-30T14:04:46.181Z,62.40
2022-09-30T14:07:27.981Z,62.70
2022-09-30T14:10:16.452Z,62.60
2022-09-30T14:13:01.422Z,62.60
2022-09-30T14:16:02.061Z,62.50
2022-09-30T14:19:05.800Z,62.40
2022-09-30T14:21:40.654Z,62.30
2022-09-30T14:24:14.237Z,62.30
2022-09-30T14:26:55.115Z,62.20
2022-09-30T14:29:32.024Z,62.10
2022-09-30T14:32:11.046Z,62.00
2022-09-30T14:34:40.760Z,62.10
2022-09-30T14:37:19.726Z,62.00
2022-09-30T14:39:50.158Z,61.90
2022-09-30T14:42:25.569Z,62.00
2022-09-30T14:45:02.372Z,61.90
2022-09-30T14:47:35.107Z,61.80
2022-09-30T14:50:05.124Z,61.90
2022-09-30T14:52:37.608Z,61.90
2022-09-30T14:55:27.020Z,61.90
2022-09-30T14:57:58.945Z,62.20
2022-09-30T15:01:05.323Z,61.30
2022-09-30T15:03:38.282Z,62.50
2022-09-30T15:06:17.833Z,62.50
2022-09-30T15:08:48.012Z,62.60
2022-09-30T15:11:22.448Z,62.70
2022-09-30T15:13:58.961Z,62.80
2022-09-30T15:16:31.605Z,62.80
2022-09-30T15:19:02.643Z,62.70
2022-09-30T15:21:35.039Z,62.60
2022-09-30T15:24:06.856Z,62.50
2022-09-30T15:26:36.301Z,62.40
2022-09-30T15:29:07.225Z,62.40
2022-09-30T15:31:46.064Z,62.50
2022-09-30T15:34:21.730Z,62.30
2022-09-30T15:37:00.625Z,62.30
2022-09-30T15:39:52.820Z,62.30
2022-09-30T15:42:32.460Z,62.30
2022-09-30T15:45:02.448Z,62.30
2022-09-30T15:47:33.557Z,62.20
2022-09-30T15:50:03.604Z,62.20
2022-09-30T15:52:39.891Z,62.20
2022-09-30T15:55:43.229Z,62.20
2022-09-30T15:58:37.950Z,62.40
2022-09-30T16:01:17.784Z,62.60
2022-09-30T16:03:55.630Z,62.60
2022-09-30T16:06:29.341Z,62.60
2022-09-30T16:09:01.496Z,63.40
2022-09-30T16:11:36.780Z,62.60
2022-09-30T16:14:09.864Z,62.60
2022-09-30T16:16:40.330Z,62.70
2022-09-30T16:19:18.739Z,62.60
2022-09-30T16:21:51.963Z,62.60
2022-09-30T16:24:46.867Z,62.60
2022-09-30T16:27:26.274Z,62.60
2022-09-30T16:29:55.537Z,62.60
2022-09-30T16:32:25.152Z,62.50
2022-09-30T16:34:55.905Z,62.70
2022-09-30T16:37:25.317Z,62.70
2022-09-30T16:39:54.457Z,62.80
2022-09-30T16:42:24.209Z,62.70
2022-09-30T16:44:54.410Z,62.80
2022-09-30T16:47:23.755Z,62.70
2022-09-30T16:49:54.666Z,62.90
2022-09-30T16:52:25.116Z,63.00
2022-09-30T16:54:55.441Z,63.00
2022-09-30T16:57:25.157Z,62.90
2022-09-30T16:59:54.522Z,62.90
2022-09-30T17:02:23.900Z,62.90
2022-09-30T17:04:54.620Z,62.90
2022-09-30T17:07:24.101Z,62.90
2022-09-30T17:09:54.003Z,62.80
2022-09-30T17:12:23.284Z,62.90
2022-09-30T17:14:52.838Z,62.90
2022-09-30T17:17:22.063Z,62.90
2022-09-30T17:19:51.554Z,62.90
2022-09-30T17:22:22.300Z,62.80
2022-09-30T17:24:52.864Z,62.70
2022-09-30T17:27:23.084Z,62.60
2022-09-30T17:29:53.625Z,63.10
2022-09-30T17:32:23.004Z,63.20
2022-09-30T17:34:52.752Z,63.20
2022-09-30T17:37:23.662Z,63.30
2022-09-30T17:39:52.845Z,63.20
2022-09-30T17:42:39.775Z,62.90
2022-09-30T17:45:12.027Z,62.80
2022-09-30T17:47:41.542Z,62.40
2022-09-30T17:50:12.995Z,62.40
2022-09-30T17:52:43.873Z,62.40
2022-09-30T17:55:13.110Z,62.30
2022-09-30T17:57:42.397Z,62.10
2022-09-30T18:00:13.504Z,62.10
2022-09-30T18:02:44.910Z,62.30
2022-09-30T18:05:14.869Z,62.60
2022-09-30T18:07:47.457Z,62.60
2022-09-30T18:10:17.218Z,62.70
2022-09-30T18:12:48.125Z,62.60
2022-09-30T18:15:18.272Z,62.60
2022-09-30T18:17:47.628Z,62.50
2022-09-30T18:20:18.659Z,62.40
2022-09-30T18:22:51.631Z,62.40
2022-09-30T18:25:21.286Z,62.20
2022-09-30T18:27:52.243Z,62.10
2022-09-30T18:30:22.025Z,62.10
2022-09-30T18:32:52.811Z,62.00
2022-09-30T18:35:24.668Z,62.00
2022-09-30T18:37:55.551Z,61.90
2022-09-30T18:40:27.236Z,61.90
2022-09-30T18:42:58.595Z,61.70
2022-09-30T18:45:28.825Z,61.70
2022-09-30T18:47:59.971Z,61.40
2022-09-30T18:50:30.733Z,61.00
2022-09-30T18:53:06.805Z,60.50
2022-09-30T18:55:40.708Z,60.60
2022-09-30T18:58:09.995Z,61.00
2022-09-30T19:00:39.222Z,61.10
2022-09-30T19:03:10.816Z,61.30
2022-09-30T19:05:40.042Z,61.30
2022-09-30T19:08:10.657Z,61.40
2022-09-30T19:10:42.338Z,61.50
2022-09-30T19:13:11.657Z,61.40
2022-09-30T19:15:40.903Z,61.50
2022-09-30T19:18:11.038Z,61.40
2022-09-30T19:20:42.053Z,61.50
2022-09-30T19:23:12.725Z,61.50
2022-09-30T19:25:42.908Z,61.50
2022-09-30T19:28:12.533Z,61.50
2022-09-30T19:30:42.308Z,61.60
2022-09-30T19:33:11.575Z,61.50
2022-09-30T19:35:41.133Z,61.60
2022-09-30T19:38:14.389Z,61.60
2022-09-30T19:40:43.666Z,61.60
2022-09-30T19:43:12.864Z,61.60
2022-09-30T19:45:42.299Z,61.60
2022-09-30T19:48:11.612Z,61.60
2022-09-30T19:50:41.421Z,61.60
2022-09-30T19:53:20.282Z,61.60
2022-09-30T19:56:01.765Z,61.50
2022-09-30T19:58:33.356Z,61.60
2022-09-30T20:01:03.261Z,61.50
2022-09-30T20:03:33.173Z,61.50
2022-09-30T20:06:03.907Z,61.50
2022-09-30T20:08:35.956Z,61.40
2022-09-30T20:11:07.018Z,61.40
2022-09-30T20:13:36.884Z,61.30
2022-09-30T20:16:08.092Z,61.30
2022-09-30T20:18:38.217Z,61.40
2022-09-30T20:21:10.471Z,61.30
2022-09-30T20:23:41.499Z,61.30
2022-09-30T20:26:14.448Z,61.40
2022-09-30T20:28:43.876Z,61.40
2022-09-30T20:31:15.775Z,61.40
2022-09-30T20:33:46.343Z,61.30
2022-09-30T20:36:15.516Z,61.30
2022-09-30T20:38:49.265Z,61.30
2022-09-30T20:41:18.512Z,61.30
2022-09-30T20:43:52.244Z,61.30
2022-09-30T20:46:22.574Z,61.30
2022-09-30T20:48:52.288Z,61.40
2022-09-30T20:51:22.367Z,61.40
2022-09-30T20:53:54.389Z,61.40
2022-09-30T20:56:24.849Z,61.50
2022-09-30T20:58:55.010Z,61.50
2022-09-30T21:01:25.521Z,61.50
2022-09-30T21:03:55.403Z,61.50
2022-09-30T21:06:27.475Z,61.40
2022-09-30T21:08:58.418Z,61.60
2022-09-30T21:11:27.617Z,61.50
2022-09-30T21:13:56.702Z,61.50
2022-09-30T21:16:26.774Z,61.50
2022-09-30T21:18:55.908Z,61.50
2022-09-30T21:21:26.956Z,61.50
2022-09-30T21:23:59.456Z,61.40
2022-09-30T21:26:30.070Z,61.50
2022-09-30T21:29:00.149Z,61.50
2022-09-30T21:31:30.197Z,61.50
2022-09-30T21:34:00.992Z,61.50
2022-09-30T21:36:32.393Z,61.50
2022-09-30T21:39:03.653Z,61.50
2022-09-30T21:41:33.773Z,61.40
2022-09-30T21:44:04.480Z,61.40
2022-09-30T21:46:35.854Z,61.40
2022-09-30T21:49:06.790Z,61.40
2022-09-30T21:51:36.578Z,61.40
2022-09-30T21:54:07.162Z,61.40
2022-09-30T21:56:37.021Z,61.30
2022-09-30T21:59:06.226Z,61.30
2022-09-30T22:01:35.839Z,61.20
2022-09-30T22:04:05.575Z,61.20
2022-09-30T22:06:34.971Z,61.20
2022-09-30T22:09:04.181Z,61.30
2022-09-30T22:11:35.000Z,61.30
2022-09-30T22:14:04.723Z,61.30
2022-09-30T22:16:36.014Z,61.30
2022-09-30T22:19:07.502Z,61.20
2022-09-30T22:21:38.608Z,61.30
2022-09-30T22:24:09.338Z,61.30
2022-09-30T22:26:41.542Z,61.30
2022-09-30T22:29:12.845Z,61.20
2022-09-30T22:31:42.343Z,62.00
2022-09-30T22:34:32.404Z,61.20
2022-09-30T22:37:18.988Z,61.20
2022-09-30T22:39:48.475Z,61.30
2022-09-30T22:42:19.390Z,61.20
2022-09-30T22:44:49.742Z,61.20
2022-09-30T22:47:18.851Z,61.20
2022-09-30T22:49:48.171Z,61.20
2022-09-30T22:52:17.367Z,61.20
2022-09-30T22:54:46.460Z,61.10
2022-09-30T22:57:24.143Z,61.20
2022-09-30T22:59:59.925Z,61.20
2022-09-30T23:02:40.312Z,61.20
2022-09-30T23:05:10.074Z,61.20
2022-09-30T23:07:40.842Z,61.30
2022-09-30T23:10:11.209Z,61.20
2022-09-30T23:12:41.799Z,61.20
2022-09-30T23:15:11.465Z,61.20
2022-09-30T23:17:40.566Z,61.10
2022-09-30T23:20:10.564Z,61.20
2022-09-30T23:22:39.655Z,61.20
2022-09-30T23:25:09.817Z,61.10
2022-09-30T23:27:39.092Z,61.10
2022-09-30T23:30:32.795Z,61.10
2022-09-30T23:33:02.145Z,61.10
2022-09-30T23:35:31.300Z,61.10
2022-09-30T23:38:00.438Z,61.20
2022-09-30T23:40:29.601Z,61.10
2022-09-30T23:42:58.745Z,61.10
2022-09-30T23:45:29.385Z,61.00
2022-09-30T23:47:59.287Z,61.00
2022-09-30T23:50:28.480Z,61.00
2022-09-30T23:52:57.584Z,60.90
2022-09-30T23:55:27.869Z,61.00
2022-09-30T23:57:57.643Z,60.90
